Airfield :
LOGIN :

Register | Disclaimer

   EN    FR    IT 

 










Legend :    VFR   Marginal VFR   IFR   Intensive IFR   Very Intensive IFR
Visi :
Ceiling :
>= 8 km
>= 3000ft
5 to 8 km
1000 to 3000 ft
1500m to 5 km
500 to 1000 ft
800 to 1500m
200 to 500 ft
< 800m
< 200 ft
Symbols :   Thunderstorms  Fog  Heavy snow  Heavy precipitations  Wind > 20 kt
SIGMETs :     Misc.  Thunderstorms  Icing  Turbulence  Mountain Waves  Volcanic Ashes







- Airport Elevation : 659 ft
- IATA code : LYN
- Download approach charts


LFLY - Lyon Bron

CURRENT METAR :
  • 281230Z AUTO 31005KT 240V010 CAVOK 25/12 Q1017 NOSIG

EXPIRED METARs :
  • 281200Z AUTO VRB02KT CAVOK 24/13 Q1017 NOSIG
  • 281130Z AUTO VRB06KT CAVOK 24/14 Q1018 NOSIG
  • 281100Z AUTO 31005KT 260V060 9999 FEW039 23/13 Q1018 NOSIG
  • 281030Z AUTO 36008KT 270V050 9999 BKN040 23/13 Q1018 NOSIG
  • 281000Z AUTO 03008KT 340V060 9999 OVC037 22/13 Q1018 NOSIG

TAF AMD TAF LFLY
Valid from the 28 at 08:00 until the 29 at 06:00 UTC


280814Z 2808/2906 35007KT 9999 BKN025
BECMG 2809/2812 CAVOK
ATIS : +33 4 72 15 87 96
No reported NOTAMs for that airfield.



MET'MAP, your aeronautical weather chart ! - Copyright ORBIFLY December 2007 - Disclaimer

ORBIFLY MET'MAP TEAM :

Programming & Development : Alexandra Zaïnal
Concept & Development : Baudouin d'Aumeries
Co-Development & Prog : Marc-Olivier Méhu
Technical & hardware support : Manuel Goepfert

Contact : metmap@orbifly.com




SOURCES & CREDITS :

   NOAA